Laman API Video Percuma Terbaik

AVDBAPI.COM

Cari katalog, semak rekod, dan salin URL API bersih daripada papan pemuka pantas.

Telegram Join Our Telegram Community for Updates!
Today
0
Kemaskini Hari Ini
Censored
314141
Censored Videos
Total
474352
Total Videos

Senarai Video

Rekod terkini disusun mengikut masa kemas kini.

ID Nama CODE Kategori Dikemaskini API
265291 H-220327 Ki220327 Ai Sasaki Gadis 19 Tahun Yang Menggiurkan H-220327 Tanpa sensor 2025-08-29 04:53:30 API
265290 PP022 Malaikat Terjatuh No.022 Miho PP022 Tanpa sensor 2025-08-29 04:53:20 API
265289 CARIBBEANCOMPR-012916 Matsumoto Mei CARIBBEANCOMPR-012916_490 Tanpa sensor 2025-08-29 04:53:10 API
265288 SIMM-764 Kocchan (18) / Aku kencing dengan awek kedua aku bersama kawan aku♪ [Bahagian 1] Syaitan yang membuat kawan aku peluk dia depan mata ●Seks Threesome! Aku tercungap-cungap, dan akhirnya aku tak peduli batang siapa pun [Bahagian 2] Kekasih SIMM-764 Mosaik 2025-08-29 04:53:00 API
265287 HEYZO-2581 Ona Rimaku dan Guchogucho! Mengentot dengan Gadis Mesum Vol.21 HEYZO-2581 Tanpa sensor 2025-08-29 04:52:50 API
265286 081821-001 Antologi Bloomers Seksi: Tsubasa Miyashita, Shizuku Hatano, Mirei Yokoyama, Airi Mizusawa, Sanae Akino, Kaede Qingdao 081821-001 Tanpa sensor 2025-08-29 04:52:40 API
265285 H0930-ORI1612 Sayaka Matsuura Wanita 27 Tahun H0930-ORI1612 Tanpa sensor 2025-08-29 04:52:30 API
265284 021820_975 Tokimeki ~ Teman wanita saya yang mendekati saya dengan daya tarikan seks yang unik ~ 021820_975 Tanpa sensor 2025-08-29 04:52:20 API
265283 FC2-PPV-4493122 Harga terhad 1980pt untuk 3 hari sahaja! Pilihan 3 wanita cantik penurut dari siri popular! Video underground segar dikeluarkan serta-merta! FC2-PPV-4493122 Tanpa sensor 2025-08-29 04:52:10 API
265282 073020-335 Isteri montok yang ghairah, menitiskan air lelaki dan disembur ke seluruh badan 073020-335 Tanpa sensor 2025-08-29 04:52:00 API
265280 012621-01 Di Kafe Internet Bersama Teman Lelaki 012621-01 Tanpa sensor 2025-08-29 04:51:40 API
265279 C0930-HITOZUMA1351 Tamao yang cantik berumur 26 tahun C0930-HITOZUMA1351 Tanpa sensor 2025-08-29 04:51:30 API
265278 012916-490 Laforet Girl Vol.65 Pelakon hebat yang boleh pancut 3 kali berturut 012916-490 Tanpa sensor 2025-08-29 04:51:20 API
265277 HEYZO-2583 Saya pakaikan baju renang pada gadis amatur saya! HEYZO-2583 Tanpa sensor 2025-08-29 04:51:10 API
265276 H-220326 Rie Tanaka Gadis 23 Tahun yang Menawan H-220326 Tanpa sensor 2025-08-29 04:51:00 API
265275 080120-336 Kembalinya Wanita Matang: Jilatan Dubur Yang Hebat 080120-336 Tanpa sensor 2025-08-29 04:50:50 API
265274 H0930-KI210921 Wanita Matang 48 Tahun Tae Nakagawa H0930-KI210921 Tanpa sensor 2025-08-29 04:50:40 API
265273 022020_001 @YOU ~ Versi istimewa yang dikeluarkan ~ 022020_001 Tanpa sensor 2025-08-29 04:50:30 API
265272 C0930-KI210330 Wanita Matang 40 Tahun Satomi Miyake C0930-KI210330 Tanpa sensor 2025-08-29 04:50:20 API
265271 081921-001 Ensiklopedia Pelakon Seksi Suzumiya Non 081921-001 Tanpa sensor 2025-08-29 04:50:10 API
265270 H4610-KI220329 Gadis Cantik Mika Yamamoto Berusia 22 Tahun H4610-KI220329 Tanpa sensor 2025-08-29 04:50:00 API
265269 012821-01 Akhirnya dapat ngentot Miss Hotetor popular yang susah sangat nak booking 012821-01 Tanpa sensor 2025-08-29 04:49:50 API
265268 080420-337 Wanita Matang Cantik Ranbu ~ Edisi Masturbasi & Main Sendiri ~ 080420-337 Tanpa sensor 2025-08-29 04:49:40 API
265266 H0930-KI210923 Mika Tamura Wanita Seksi Berusia 32 Tahun H0930-KI210923 Tanpa sensor 2025-08-29 04:49:20 API
265265 082021-001 Fail Nafsu Wanita Asaka Sera 082021-001 Tanpa sensor 2025-08-29 04:49:10 API
265263 HEYZO-2584 Rahsia Lucah Isteri Tak Bermoral yang Tidak Boleh Diberitahu kepada Suaminya Vol.3 HEYZO-2584 Tanpa sensor 2025-08-29 04:48:50 API
265262 KB1532 Team Kimura Edisi Khas - KB1532 Tanpa sensor 2025-08-29 04:48:40 API
265261 022220_976 Koleksi Model Seksi Dalam Pakaian Dalam Putih 022220_976 Tanpa sensor 2025-08-29 04:48:30 API
265260 020416-491 Kali pertama dengan zakar hitam 020416-491 Tanpa sensor 2025-08-29 04:48:20 API
265259 C0930-KI210401 Yuriko Takasugi, Wanita Seksi Berusia 31 Tahun C0930-KI210401 Tanpa sensor 2025-08-29 04:48:10 API
265258 080720-338 Isteri Orang Mengemis Creampie Semasa Suaminya Tiada Di Rumah 080720-338 Tanpa sensor 2025-08-29 04:48:00 API
265257 SE216 Tubuh Neshin SE216 Tanpa sensor 2025-08-29 04:47:50 API
265256 FC2-PPV-4493024 Menghenjut dengan pelacur hentai Bitchlina Bosan dengan pelanggan bar yang lembik, masanya untuk aksi pertempuran kelajuan tinggi yang gila! FC2-PPV-4493024 Tanpa sensor 2025-08-29 04:47:40 API
265255 H0930-TK0042 Wanita Seksi 31 Tahun Tosano Rina H0930-TK0042 Tanpa sensor 2025-08-29 04:47:30 API
265254 082121-001 Califure ~ Kalau minta, saya pakai baju pelaut yang seksi ~ Mikuro Komori 082121-001 Tanpa sensor 2025-08-29 04:47:20 API
265253 H4610-KI220331 Aya Sakuragi Umur 20 Tahun H4610-KI220331 Tanpa sensor 2025-08-29 04:47:10 API
265252 HEYZO-2585 Nikmat Bersama Urutan Erotik! ~ Bersama Yurigawa Sara ~ HEYZO-2585 Tanpa sensor 2025-08-29 04:47:00 API
265251 122915-001 Otowa Leon Yang Menggoda 122915-001 Tanpa sensor 2025-08-29 04:46:50 API
265250 022320_977 Yukie Natsuki Yang Menggoda dan Seksi 022320_977 Tanpa sensor 2025-08-29 04:46:40 API
265249 080820-339 Isteri Tanpa Bra Yang Mengganggu Ketenteraman 080820-339 Tanpa sensor 2025-08-29 04:46:30 API
265248 C0930-TK0031 Wanita Cantik Ogawara Mei Berusia 29 Tahun C0930-TK0031 Tanpa sensor 2025-08-29 04:46:20 API
265247 HEYZO-2616 Tukar Isteri Amatir: Miyazaki & Goto Latihan Bertukar Enema Anal dan Oral Serentak HEYZO-2616 Tanpa sensor 2025-08-29 04:46:10 API
265246 PP024 Malaikat Terjatuh No.024 Chiaki PP024 Tanpa sensor 2025-08-29 04:46:00 API
265245 082221-001 Nana Ueyama, bakal isteri lembut bak roti pita yang membuatkan aku melayang 082221-001 Tanpa sensor 2025-08-29 04:45:50 API
265244 H0930-KI210926 Gadis Cantik Berusia 22 Tahun Chizuru Tokunaga H0930-KI210926 Tanpa sensor 2025-08-29 04:45:40 API
265243 H-220331 Aya Sakuragi Gadis 20 Tahun Yang Menggiurkan H-220331 Tanpa sensor 2025-08-29 04:45:30 API
265242 022520_978 Jom layan dewi Rina Shirakawa 022520_978 Tanpa sensor 2025-08-29 04:45:20 API
265241 080920-340 Angkat hujung yukata dan masa untuk pakopako! 080920-340 Tanpa sensor 2025-08-29 04:45:10 API
265240 FC2-PPV-4493322 fc2-ppv-4493322 FC2-PPV-4493322 Tanpa sensor 2025-08-29 04:45:00 API
265239 020416-492 Suntikan air mani ke dalam perut gadis cantik berkulit lutsinar 020416-492 Tanpa sensor 2025-08-29 04:44:50 API